This is the latest recevied weather packets stored in our database for station/object KF4CQ. If no packets are shown the sender has not sent any weather packets the latest 1 day(s).
| Time | Temp. | Humidity | Pressure | Rain* | Wind** | Luminosity | Snow |
|---|---|---|---|---|---|---|---|
| 1778084849 | 31.67° C | 53% | 1018.1 hPa | 0 mm | - | 743 W/m² | - |
| 1778084547 | 31.67° C | 54% | 1018.3 hPa | 0 mm | - | 706 W/m² | - |
| 1778084244 | 31.11° C | 53% | 1018.5 hPa | 0 mm | - | 687 W/m² | - |
| 1778081598 | 30° C | 59% | 1018.7 hPa | 0 mm | - | 607 W/m² | - |
| 1778080691 | 30° C | 60% | 1018.7 hPa | 0 mm | - | 513 W/m² | - |
| 1778080084 | 29.44° C | 60% | 1018.7 hPa | 0 mm | - | 536 W/m² | - |
| 1778079781 | 28.89° C | 61% | 1018.9 hPa | 0 mm | - | 501 W/m² | - |
| 1778079478 | 28.89° C | 61% | 1018.6 hPa | 0 mm | - | 463 W/m² | - |
| 1778079174 | 28.89° C | 65% | 1018.5 hPa | 0 mm | - | 457 W/m² | - |
| 1778078872 | 28.89° C | 66% | 1018.4 hPa | 0 mm | - | 522 W/m² | - |
| 1778078266 | 28.89° C | 68% | 1018.4 hPa | 0 mm | - | 372 W/m² | - |
| 1778077662 | 27.78° C | 70% | 1018.5 hPa | 0 mm | - | 470 W/m² | - |
| 1778074027 | 25.56° C | 80% | 1018.4 hPa | 0 mm | - | 241 W/m² | - |
| 1778071605 | 23.89° C | 85% | 1018.1 hPa | 0 mm | - | 89 W/m² | - |
| 1778069790 | 22.78° C | 86% | 1018.2 hPa | 0 mm | - | 54 W/m² | - |
| 1778069486 | 22.22° C | 87% | 1017.9 hPa | 0 mm | - | 47 W/m² | - |
| 1778068580 | 19.44° C | 92% | 1018 hPa | 0 mm | - | 36 W/m² | - |
| 1778065856 | 16.67° C | 97% | 1017.5 hPa | 0 mm | - | 14 W/m² | - |
| 1778065251 | 16.67° C | 97% | 1017.2 hPa | 0 mm | - | 8 W/m² | - |
| 1778064644 | 16.67° C | 97% | 1017.1 hPa | 0 mm | - | 3 W/m² | - |
| 1778063737 | 16.11° C | 96% | 1017.1 hPa | 0 mm | - | 0 W/m² | - |
| 1778063132 | 16.67° C | 96% | 1017.1 hPa | 0 mm | - | 0 W/m² | - |
| 1778062829 | 16.67° C | 96% | 1017 hPa | 0 mm | - | 0 W/m² | - |
| 1778061921 | 16.67° C | 96% | 1016.9 hPa | 0 mm | - | 0 W/m² | - |
| 1778061619 | 16.67° C | 96% | 1016.9 hPa | 0 mm | - | 0 W/m² | - |
* Rain latest hour (hover to see other rain measurements)
** Current wind speed in m/s (hover to see current wind gust speed)